Buoy 46770

sailwx.info

Track history (hours):
 
Tides and Currents Weather Stations Pressure Air Temp Water Temp Dewpoint Dewpoint Depression Visibility Wind Speed Wind Dir Waves Ship Positions

Drifting buoy 46770

Last reported at 2017-Nov-24 16:00 UTC. Time now 2017-Nov-24 18:13 UTC.
Position N 22°32' W 143°23'.

Barometer 1013.3 mb
Water temperature 23.8 ° C

Date/timePositionNaut miles runAvg speedWind from/ knotsBaromVisibWave heightAir tempDewpointWater temp
2017-Nov-24 16:00N 22°32' W 143°23'0 0.0 1013.3 23.8
2017-Nov-24 15:00N 22°32' W 143°23'0 0.0 1013.2 23.8
2017-Nov-24 14:00N 22°32' W 143°23'2 2.4 1012.6 23.7
2017-Nov-24 13:00N 22°34' W 143°23'2 1.9 1012.9 23.8
2017-Nov-24 12:00N 22°32' W 143°23'2 1.9 1013.2 23.7
2017-Nov-24 11:00N 22°34' W 143°23'0 0.0 1014.1 23.6
2017-Nov-24 08:00N 22°34' W 143°23'0 0.0 1015.5 23.8
2017-Nov-24 07:00N 22°34' W 143°23'0 0.0 1015.4 23.8
2017-Nov-24 06:00N 22°34' W 143°23'1 0.8 1015.6 23.7
2017-Nov-24 05:00N 22°35' W 143°23'1 0.8 1015.7 23.9
2017-Nov-24 04:00N 22°34' W 143°22'1 1.3 1015.0 23.9
2017-Nov-24 03:00N 22°35' W 143°21'0 0.0 1014.3 24.0
2017-Nov-24 02:00N 22°35' W 143°21'0 0.0 1014.2 24.0
2017-Nov-24 01:00N 22°35' W 143°21'1 0.6 1013.9 24.0
2017-Nov-24 00:00N 22°35' W 143°20'0 0.0 1014.0 24.1
2017-Nov-23 23:00N 22°35' W 143°20'0 0.0 1014.6 24.1
2017-Nov-23 22:00N 22°35' W 143°20'1 0.4 1015.4 24.0
2017-Nov-23 20:00N 22°35' W 143°20'1 0.8 1016.9 24.0
2017-Nov-23 19:00N 22°36' W 143°19'1 0.6 1017.4 23.9
2017-Nov-23 18:00N 22°36' W 143°19'1 1.3 1017.3 23.9
2017-Nov-23 17:00N 22°37' W 143°18'1 0.6 1016.7 23.9
2017-Nov-23 16:00N 22°37' W 143°17'0 0.0 1016.4 23.9
2017-Nov-23 15:00N 22°37' W 143°17'1 0.6 1015.8 23.9
2017-Nov-23 14:00N 22°38' W 143°17'1 0.8 1015.3 23.9
2017-Nov-23 13:00N 22°38' W 143°17'1 0.4 1015.5 23.9
2017-Nov-23 11:00N 22°39' W 143°17'1 0.3 1016.5 23.9
2017-Nov-23 07:00N 22°40' W 143°16'1 0.8 1017.1 24.0
2017-Nov-23 06:00N 22°40' W 143°16'0 0.0 1017.1 24.1
2017-Nov-23 05:00N 22°40' W 143°16'1 0.6 1016.8 24.1
2017-Nov-23 04:00N 22°41' W 143°16'1 0.6 1016.3 24.2
2017-Nov-23 03:00N 22°41' W 143°16'0 0.0 1015.6 24.2
2017-Nov-23 02:00N 22°41' W 143°16'0 0.0 1015.1 24.3
2017-Nov-23 01:00N 22°41' W 143°16'1 0.6 1014.5 24.4
2017-Nov-23 00:00N 22°42' W 143°16'0 0.0 1014.2 24.4
2017-Nov-22 23:00N 22°42' W 143°16'0 0.0 1014.5 24.6
2017-Nov-22 22:00N 22°42' W 143°16'1 0.2 1014.9 24.8
2017-Nov-22 19:00N 22°41' W 143°16'1 0.8 1016.4 23.9
2017-Nov-22 18:00N 22°41' W 143°15'0 0.0 1016.0 23.8
2017-Nov-22 17:00N 22°41' W 143°15'1 0.6 1015.6 23.8
2017-Nov-22 16:00N 22°41' W 143°14'1 1.3 1015.0 23.8
2017-Nov-22 15:00N 22°41' W 143°13'0 0.0 1014.3 23.8
2017-Nov-22 13:00N 22°41' W 143°13'1 0.6 1013.8 23.8
2017-Nov-22 12:00N 22°41' W 143°13'0 0.0 1013.6 23.8
2017-Nov-22 11:00N 22°41' W 143°13'1 0.3 1014.0 23.8
2017-Nov-22 07:00N 22°43' W 143°12'1 0.6 1014.4 23.9
2017-Nov-22 06:00N 22°43' W 143°12'1 0.8 1014.1 23.9
2017-Nov-22 05:00N 22°44' W 143°13'1 0.6 1013.4 23.9
2017-Nov-22 04:00N 22°44' W 143°12'1 1.3 1012.9 23.9
2017-Nov-22 03:00N 22°45' W 143°13'1 0.8 1012.6 23.9
2017-Nov-22 02:00N 22°46' W 143°13'0 0.0 1012.0 23.9
2017-Nov-22 01:00N 22°46' W 143°13'2 0.9 1011.4 23.9
2017-Nov-21 23:00N 22°46' W 143°15'2 0.8 1011.4 23.9
2017-Nov-21 20:00N 22°46' W 143°17'1 0.8 1013.2 23.9
2017-Nov-21 19:00N 22°45' W 143°18'1 0.6 1013.3 23.8
2017-Nov-21 18:00N 22°44' W 143°18'0 0.0 1012.9 23.8
2017-Nov-21 17:00N 22°44' W 143°18'1 0.6 1012.6 23.8
2017-Nov-21 16:00N 22°44' W 143°18'1 0.6 1011.9 23.8
2017-Nov-21 15:00N 22°44' W 143°17'1 0.6 1011.5 23.8
2017-Nov-21 14:00N 22°44' W 143°18'1 0.6 1011.0 23.8
2017-Nov-21 13:00N 22°43' W 143°18'1 0.6 1010.9 23.8
2017-Nov-21 12:00N 22°43' W 143°17'1 0.6 1010.9 23.8
2017-Nov-21 11:00N 22°43' W 143°18'1 0.2 1011.3 23.8
2017-Nov-21 07:00N 22°44' W 143°17'1 0.6 1011.3 23.8
2017-Nov-21 06:00N 22°44' W 143°17'0 0.0 1011.0 23.8
2017-Nov-21 05:00N 22°44' W 143°17'0 0.0 1010.5 23.8
2017-Nov-21 04:00N 22°44' W 143°17'2 1.8 1009.7 23.8
2017-Nov-21 03:00N 22°46' W 143°17'0 0.0 1008.9 23.8
2017-Nov-21 01:00N 22°46' W 143°17'2 0.8 1007.5 23.8
2017-Nov-20 23:00N 22°47' W 143°19'5 1.7 1008.6 23.8
2017-Nov-20 20:00N 22°50' W 143°23'1 0.8 1009.3 23.7
2017-Nov-20 19:00N 22°50' W 143°24'1 1.1 1008.9 23.7
2017-Nov-20 18:00N 22°50' W 143°25'2 2.2 1008.8 23.7
2017-Nov-20 17:00N 22°50' W 143°28'0 0.0 1008.5 23.8
2017-Nov-20 16:00N 22°50' W 143°28'0 0.0 1008.1 23.8
2017-Nov-20 15:00N 22°50' W 143°28'1 0.6 1007.7 23.8
2017-Nov-20 14:00N 22°50' W 143°28'1 0.8 1007.2 23.8
2017-Nov-20 13:00N 22°50' W 143°29'4 3.8 1007.6 23.8
2017-Nov-20 12:00N 22°48' W 143°32'0 0.0 1007.9 23.8
2017-Nov-20 08:00N 22°48' W 143°32'1 1.3 1009.7 23.8
2017-Nov-20 07:00N 22°47' W 143°32'2 1.6 1009.5 23.8
2017-Nov-20 06:00N 22°46' W 143°33'2 2.0 1009.5 23.8
2017-Nov-20 05:00N 22°44' W 143°31'1 1.3 1009.0 23.8
2017-Nov-20 04:00N 22°43' W 143°32'2 1.6 1009.0 23.8
2017-Nov-20 03:00N 22°42' W 143°31'0 0.0 1008.5 23.8
2017-Nov-20 01:00N 22°42' W 143°31'1 1.3 1008.2 23.8
2017-Nov-20 00:00N 22°41' W 143°30'0 0.0 1008.3 23.8
2017-Nov-19 23:00N 22°41' W 143°30'3 1.1 1009.2 23.8
2017-Nov-19 20:00N 22°40' W 143°26'2 1.8 1010.8 23.7
2017-Nov-19 19:00N 22°41' W 143°25'0 0.0 1011.5 23.7
2017-Nov-19 18:00N 22°41' W 143°25'3 2.9 1011.4 23.7
2017-Nov-19 17:00N 22°43' W 143°22'0 0.0 1011.1 23.7
2017-Nov-19 15:00N 22°43' W 143°22'2 1.6 1009.7 23.7
2017-Nov-19 14:00N 22°44' W 143°21'2 1.8 1009.0 23.7
2017-Nov-19 13:00N 22°46' W 143°21'4 3.8 1009.5 23.7
2017-Nov-19 12:00N 22°49' W 143°20'1 0.1 1009.7 23.6
2017-Nov-19 07:00N 22°49' W 143°19'0 0.0 1011.2 23.9
2017-Nov-19 06:00N 22°49' W 143°19'1 0.6 1012.0 23.9
2017-Nov-19 05:00N 22°49' W 143°19'1 0.6 1011.7 23.9
2017-Nov-19 04:00N 22°50' W 143°19'0 0.0 1010.5 23.9
2017-Nov-19 03:00N 22°50' W 143°19'1 0.8 1009.9 23.9
2017-Nov-19 02:00N 22°50' W 143°18'0 0.0 1009.5 23.9
2017-Nov-19 01:00N 22°50' W 143°18'0 0.0 1009.1 23.9
2017-Nov-19 00:00N 22°50' W 143°18'0 0.0 1009.5 23.9
2017-Nov-18 23:00N 22°50' W 143°18'1 0.2 1010.6 23.9
2017-Nov-18 20:00N 22°50' W 143°17'1 0.6 1013.6 23.9
2017-Nov-18 19:00N 22°50' W 143°17'0 0.0 1014.0 23.9
2017-Nov-18 18:00N 22°50' W 143°17'0 0.0 1013.8 23.9
2017-Nov-18 17:00N 22°50' W 143°17'1 0.6 1013.5 23.9
2017-Nov-18 16:00N 22°50' W 143°17'1 1.3 1013.1 23.9
2017-Nov-18 15:00N 22°50' W 143°16'1 0.6 1012.7 23.9
2017-Nov-18 14:00N 22°50' W 143°16'1 0.6 1012.2 23.9
2017-Nov-18 13:00N 22°50' W 143°15'3 2.5 1011.6 23.9
2017-Nov-18 12:00N 22°49' W 143°13'1 0.1 1011.8 23.9
2017-Nov-18 07:00N 22°49' W 143°12'0 0.0 1015.0 23.9
2017-Nov-18 06:00N 22°49' W 143°12'1 1.1 1014.9 23.9
2017-Nov-18 05:00N 22°49' W 143°11'0 0.0 1014.4 23.9
2017-Nov-18 04:00N 22°49' W 143°11'1 0.6 1013.6 23.9
2017-Nov-18 03:00N 22°49' W 143°10'1 1.1 1013.4 23.9
2017-Nov-18 02:00N 22°49' W 143°09'1 1.3 1013.0 23.9
2017-Nov-18 01:00N 22°49' W 143°08'3 2.8 1013.0 23.8
2017-Nov-18 00:00N 22°50' W 143°05'3 2.8 1013.4 23.9
2017-Nov-17 23:00N 22°49' W 143°08'4 1.1 1013.6 23.9
2017-Nov-17 19:00N 22°51' W 143°04'1 0.6 1016.4 23.9
2017-Nov-17 18:00N 22°51' W 143°03'1 0.6 1016.1 23.9
2017-Nov-17 17:00N 22°51' W 143°02'1 0.8 1015.6 23.9
2017-Nov-17 16:00N 22°52' W 143°02'1 0.6 1014.9 23.9
2017-Nov-17 15:00N 22°52' W 143°01'0 0.0 1014.5 23.9
2017-Nov-17 14:00N 22°52' W 143°01'5 4.8 1014.3 23.9
2017-Nov-17 13:00N 22°53' W 142°56'4 4.1 1014.7 23.9
2017-Nov-17 12:00N 22°52' W 143°01'4 0.8 1015.1 23.9
2017-Nov-17 07:00N 22°53' W 142°56'1 1.3 1017.1 24.0
2017-Nov-17 06:00N 22°54' W 142°55'1 0.6 1016.7 24.0
2017-Nov-17 05:00N 22°54' W 142°55'1 0.8 1016.6 24.0
2017-Nov-17 04:00N 22°55' W 142°54'1 0.6 1015.8 24.0
2017-Nov-17 03:00N 22°55' W 142°55'2 2.3 1015.0 24.0
2017-Nov-17 02:00N 22°55' W 142°52'0 0.0 1014.7 24.1
2017-Nov-17 01:00N 22°55' W 142°52'4 4.1 1014.3 24.1
2017-Nov-17 00:00N 22°58' W 142°49'1 0.1 1014.2 24.0
2017-Nov-16 20:00N 22°58' W 142°49'2 1.9 1016.7 23.9
2017-Nov-16 19:00N 22°59' W 142°49'1 0.8 1017.0 23.9
2017-Nov-16 18:00N 22°59' W 142°48'0 0.0 1016.4 23.9
2017-Nov-16 17:00N 22°59' W 142°48'2 1.6 1015.9 23.9
2017-Nov-16 16:00N 23°00' W 142°47'6 6.1 1015.5 23.9
2017-Nov-16 15:00N 23°04' W 142°42'6 5.7 1014.7 23.9
2017-Nov-16 14:00N 23°00' W 142°46'6 5.7 1014.6 24.0
2017-Nov-16 13:00N 23°04' W 142°42'1 0.1 1014.3 24.0
2017-Nov-16 07:00N 23°04' W 142°41'1 0.8 1015.9 24.4
2017-Nov-16 06:00N 23°05' W 142°41'1 0.6 1016.0 24.4
2017-Nov-16 05:00N 23°05' W 142°40'0 0.0 1015.4 24.3
2017-Nov-16 04:00N 23°05' W 142°40'1 0.6 1014.2 24.5
2017-Nov-16 03:00N 23°05' W 142°40'2 2.3 1013.8 24.5
2017-Nov-16 02:00N 23°05' W 142°37'0 0.0 1013.3 24.6
2017-Nov-16 00:00N 23°05' W 142°37'1 1.3 1012.8 24.7
2017-Nov-15 23:00N 23°07' W 142°37'1 0.3 1013.3 24.6
2017-Nov-15 19:00N 23°07' W 142°35'1 1.3 1016.2 24.2
2017-Nov-15 18:00N 23°08' W 142°35'0 0.0 1016.1 24.1
2017-Nov-15 17:00N 23°08' W 142°35'0 0.0 1015.5 24.0
2017-Nov-15 16:00N 23°08' W 142°35'0 0.0 1014.9 24.1
2017-Nov-15 15:00N 23°08' W 142°35'2 1.6 1014.6 24.1
2017-Nov-15 14:00N 23°09' W 142°34'2 1.6 1014.3 24.2
2017-Nov-15 13:00N 23°10' W 142°35'0 0.0 1014.1 24.2
2017-Nov-15 11:00N 23°10' W 142°35'1 0.4 1014.6 24.2
2017-Nov-15 08:00N 23°11' W 142°36'1 0.6 1015.4 24.3
2017-Nov-15 07:00N 23°11' W 142°35'1 0.6 1015.4 24.3
2017-Nov-15 06:00N 23°11' W 142°36'0 0.0 1015.3 24.3
2017-Nov-15 05:00N 23°11' W 142°36'0 0.0 1015.0 24.3
2017-Nov-15 04:00N 23°11' W 142°36'0 0.0 1014.3 24.4
2017-Nov-15 03:00N 23°11' W 142°36'0 0.0 1013.7 24.5
2017-Nov-15 02:00N 23°11' W 142°36'1 0.6 1013.4 24.6
2017-Nov-15 01:00N 23°10' W 142°36'0 0.0 1013.2 24.6
2017-Nov-15 00:00N 23°10' W 142°36'0 0.0 1013.4 24.5
2017-Nov-14 23:00N 23°10' W 142°36'0 0.0 1013.8 24.5
2017-Nov-14 22:00N 23°10' W 142°36'1 0.4 1014.4 24.3
2017-Nov-14 20:00N 23°10' W 142°35'1 0.6 1016.2 24.0
2017-Nov-14 19:00N 23°10' W 142°35'0 0.0 1016.8 23.9
2017-Nov-14 18:00N 23°10' W 142°35'1 0.6 1016.6 23.9
2017-Nov-14 16:00N 23°10' W 142°34'   1015.6 23.8
Track history (hours):
 
Tides and Currents Weather Stations Pressure Air Temp Water Temp Dewpoint Dewpoint Depression Visibility Wind Speed Wind Dir Waves Ship Positions

Drifting buoy 46770

Last reported at 2017-Nov-24 16:00 UTC. Time now 2017-Nov-24 18:13 UTC.
Position N 22°32' W 143°23'.

Barometer 1013.3 mb
Water temperature 23.8 ° C

Date/timePositionNaut miles runAvg speedWind from/ knotsBaromVisibWave heightAir tempDewpointWater temp
2017-Nov-24 16:00N 22°32' W 143°23'0 0.0 1013.3 23.8
2017-Nov-24 15:00N 22°32' W 143°23'0 0.0 1013.2 23.8
2017-Nov-24 14:00N 22°32' W 143°23'2 2.4 1012.6 23.7
2017-Nov-24 13:00N 22°34' W 143°23'2 1.9 1012.9 23.8
2017-Nov-24 12:00N 22°32' W 143°23'2 1.9 1013.2 23.7
2017-Nov-24 11:00N 22°34' W 143°23'0 0.0 1014.1 23.6
2017-Nov-24 08:00N 22°34' W 143°23'0 0.0 1015.5 23.8
2017-Nov-24 07:00N 22°34' W 143°23'0 0.0 1015.4 23.8
2017-Nov-24 06:00N 22°34' W 143°23'1 0.8 1015.6 23.7
2017-Nov-24 05:00N 22°35' W 143°23'1 0.8 1015.7 23.9
2017-Nov-24 04:00N 22°34' W 143°22'1 1.3 1015.0 23.9
2017-Nov-24 03:00N 22°35' W 143°21'0 0.0 1014.3 24.0
2017-Nov-24 02:00N 22°35' W 143°21'0 0.0 1014.2 24.0
2017-Nov-24 01:00N 22°35' W 143°21'1 0.6 1013.9 24.0
2017-Nov-24 00:00N 22°35' W 143°20'0 0.0 1014.0 24.1
2017-Nov-23 23:00N 22°35' W 143°20'0 0.0 1014.6 24.1
2017-Nov-23 22:00N 22°35' W 143°20'1 0.4 1015.4 24.0
2017-Nov-23 20:00N 22°35' W 143°20'1 0.8 1016.9 24.0
2017-Nov-23 19:00N 22°36' W 143°19'1 0.6 1017.4 23.9
2017-Nov-23 18:00N 22°36' W 143°19'1 1.3 1017.3 23.9
2017-Nov-23 17:00N 22°37' W 143°18'1 0.6 1016.7 23.9
2017-Nov-23 16:00N 22°37' W 143°17'0 0.0 1016.4 23.9
2017-Nov-23 15:00N 22°37' W 143°17'1 0.6 1015.8 23.9
2017-Nov-23 14:00N 22°38' W 143°17'1 0.8 1015.3 23.9
2017-Nov-23 13:00N 22°38' W 143°17'1 0.4 1015.5 23.9
2017-Nov-23 11:00N 22°39' W 143°17'1 0.3 1016.5 23.9
2017-Nov-23 07:00N 22°40' W 143°16'1 0.8 1017.1 24.0
2017-Nov-23 06:00N 22°40' W 143°16'0 0.0 1017.1 24.1
2017-Nov-23 05:00N 22°40' W 143°16'1 0.6 1016.8 24.1
2017-Nov-23 04:00N 22°41' W 143°16'1 0.6 1016.3 24.2
2017-Nov-23 03:00N 22°41' W 143°16'0 0.0 1015.6 24.2
2017-Nov-23 02:00N 22°41' W 143°16'0 0.0 1015.1 24.3
2017-Nov-23 01:00N 22°41' W 143°16'1 0.6 1014.5 24.4
2017-Nov-23 00:00N 22°42' W 143°16'0 0.0 1014.2 24.4
2017-Nov-22 23:00N 22°42' W 143°16'0 0.0 1014.5 24.6
2017-Nov-22 22:00N 22°42' W 143°16'1 0.2 1014.9 24.8
2017-Nov-22 19:00N 22°41' W 143°16'1 0.8 1016.4 23.9
2017-Nov-22 18:00N 22°41' W 143°15'0 0.0 1016.0 23.8
2017-Nov-22 17:00N 22°41' W 143°15'1 0.6 1015.6 23.8
2017-Nov-22 16:00N 22°41' W 143°14'1 1.3 1015.0 23.8
2017-Nov-22 15:00N 22°41' W 143°13'0 0.0 1014.3 23.8
2017-Nov-22 13:00N 22°41' W 143°13'1 0.6 1013.8 23.8
2017-Nov-22 12:00N 22°41' W 143°13'0 0.0 1013.6 23.8
2017-Nov-22 11:00N 22°41' W 143°13'1 0.3 1014.0 23.8
2017-Nov-22 07:00N 22°43' W 143°12'1 0.6 1014.4 23.9
2017-Nov-22 06:00N 22°43' W 143°12'1 0.8 1014.1 23.9
2017-Nov-22 05:00N 22°44' W 143°13'1 0.6 1013.4 23.9
2017-Nov-22 04:00N 22°44' W 143°12'1 1.3 1012.9 23.9
2017-Nov-22 03:00N 22°45' W 143°13'1 0.8 1012.6 23.9
2017-Nov-22 02:00N 22°46' W 143°13'0 0.0 1012.0 23.9
2017-Nov-22 01:00N 22°46' W 143°13'2 0.9 1011.4 23.9
2017-Nov-21 23:00N 22°46' W 143°15'2 0.8 1011.4 23.9
2017-Nov-21 20:00N 22°46' W 143°17'1 0.8 1013.2 23.9
2017-Nov-21 19:00N 22°45' W 143°18'1 0.6 1013.3 23.8
2017-Nov-21 18:00N 22°44' W 143°18'0 0.0 1012.9 23.8
2017-Nov-21 17:00N 22°44' W 143°18'1 0.6 1012.6 23.8
2017-Nov-21 16:00N 22°44' W 143°18'1 0.6 1011.9 23.8
2017-Nov-21 15:00N 22°44' W 143°17'1 0.6 1011.5 23.8
2017-Nov-21 14:00N 22°44' W 143°18'1 0.6 1011.0 23.8
2017-Nov-21 13:00N 22°43' W 143°18'1 0.6 1010.9 23.8
2017-Nov-21 12:00N 22°43' W 143°17'1 0.6 1010.9 23.8
2017-Nov-21 11:00N 22°43' W 143°18'1 0.2 1011.3 23.8
2017-Nov-21 07:00N 22°44' W 143°17'1 0.6 1011.3 23.8
2017-Nov-21 06:00N 22°44' W 143°17'0 0.0 1011.0 23.8
2017-Nov-21 05:00N 22°44' W 143°17'0 0.0 1010.5 23.8
2017-Nov-21 04:00N 22°44' W 143°17'2 1.8 1009.7 23.8
2017-Nov-21 03:00N 22°46' W 143°17'0 0.0 1008.9 23.8
2017-Nov-21 01:00N 22°46' W 143°17'2 0.8 1007.5 23.8
2017-Nov-20 23:00N 22°47' W 143°19'5 1.7 1008.6 23.8
2017-Nov-20 20:00N 22°50' W 143°23'1 0.8 1009.3 23.7
2017-Nov-20 19:00N 22°50' W 143°24'1 1.1 1008.9 23.7
2017-Nov-20 18:00N 22°50' W 143°25'2 2.2 1008.8 23.7
2017-Nov-20 17:00N 22°50' W 143°28'0 0.0 1008.5 23.8
2017-Nov-20 16:00N 22°50' W 143°28'0 0.0 1008.1 23.8
2017-Nov-20 15:00N 22°50' W 143°28'1 0.6 1007.7 23.8
2017-Nov-20 14:00N 22°50' W 143°28'1 0.8 1007.2 23.8
2017-Nov-20 13:00N 22°50' W 143°29'4 3.8 1007.6 23.8
2017-Nov-20 12:00N 22°48' W 143°32'0 0.0 1007.9 23.8
2017-Nov-20 08:00N 22°48' W 143°32'1 1.3 1009.7 23.8
2017-Nov-20 07:00N 22°47' W 143°32'2 1.6 1009.5 23.8
2017-Nov-20 06:00N 22°46' W 143°33'2 2.0 1009.5 23.8
2017-Nov-20 05:00N 22°44' W 143°31'1 1.3 1009.0 23.8
2017-Nov-20 04:00N 22°43' W 143°32'2 1.6 1009.0 23.8
2017-Nov-20 03:00N 22°42' W 143°31'0 0.0 1008.5 23.8
2017-Nov-20 01:00N 22°42' W 143°31'1 1.3 1008.2 23.8
2017-Nov-20 00:00N 22°41' W 143°30'0 0.0 1008.3 23.8
2017-Nov-19 23:00N 22°41' W 143°30'3 1.1 1009.2 23.8
2017-Nov-19 20:00N 22°40' W 143°26'2 1.8 1010.8 23.7
2017-Nov-19 19:00N 22°41' W 143°25'0 0.0 1011.5 23.7
2017-Nov-19 18:00N 22°41' W 143°25'3 2.9 1011.4 23.7
2017-Nov-19 17:00N 22°43' W 143°22'0 0.0 1011.1 23.7
2017-Nov-19 15:00N 22°43' W 143°22'2 1.6 1009.7 23.7
2017-Nov-19 14:00N 22°44' W 143°21'2 1.8 1009.0 23.7
2017-Nov-19 13:00N 22°46' W 143°21'4 3.8 1009.5 23.7
2017-Nov-19 12:00N 22°49' W 143°20'1 0.1 1009.7 23.6
2017-Nov-19 07:00N 22°49' W 143°19'0 0.0 1011.2 23.9
2017-Nov-19 06:00N 22°49' W 143°19'1 0.6 1012.0 23.9
2017-Nov-19 05:00N 22°49' W 143°19'1 0.6 1011.7 23.9
2017-Nov-19 04:00N 22°50' W 143°19'0 0.0 1010.5 23.9
2017-Nov-19 03:00N 22°50' W 143°19'1 0.8 1009.9 23.9
2017-Nov-19 02:00N 22°50' W 143°18'0 0.0 1009.5 23.9
2017-Nov-19 01:00N 22°50' W 143°18'0 0.0 1009.1 23.9
2017-Nov-19 00:00N 22°50' W 143°18'0 0.0 1009.5 23.9
2017-Nov-18 23:00N 22°50' W 143°18'1 0.2 1010.6 23.9
2017-Nov-18 20:00N 22°50' W 143°17'1 0.6 1013.6 23.9
2017-Nov-18 19:00N 22°50' W 143°17'0 0.0 1014.0 23.9
2017-Nov-18 18:00N 22°50' W 143°17'0 0.0 1013.8 23.9
2017-Nov-18 17:00N 22°50' W 143°17'1 0.6 1013.5 23.9
2017-Nov-18 16:00N 22°50' W 143°17'1 1.3 1013.1 23.9
2017-Nov-18 15:00N 22°50' W 143°16'1 0.6 1012.7 23.9
2017-Nov-18 14:00N 22°50' W 143°16'1 0.6 1012.2 23.9
2017-Nov-18 13:00N 22°50' W 143°15'3 2.5 1011.6 23.9
2017-Nov-18 12:00N 22°49' W 143°13'1 0.1 1011.8 23.9
2017-Nov-18 07:00N 22°49' W 143°12'0 0.0 1015.0 23.9
2017-Nov-18 06:00N 22°49' W 143°12'1 1.1 1014.9 23.9
2017-Nov-18 05:00N 22°49' W 143°11'0 0.0 1014.4 23.9
2017-Nov-18 04:00N 22°49' W 143°11'1 0.6 1013.6 23.9
2017-Nov-18 03:00N 22°49' W 143°10'1 1.1 1013.4 23.9
2017-Nov-18 02:00N 22°49' W 143°09'1 1.3 1013.0 23.9
2017-Nov-18 01:00N 22°49' W 143°08'3 2.8 1013.0 23.8
2017-Nov-18 00:00N 22°50' W 143°05'3 2.8 1013.4 23.9
2017-Nov-17 23:00N 22°49' W 143°08'4 1.1 1013.6 23.9
2017-Nov-17 19:00N 22°51' W 143°04'1 0.6 1016.4 23.9
2017-Nov-17 18:00N 22°51' W 143°03'1 0.6 1016.1 23.9
2017-Nov-17 17:00N 22°51' W 143°02'1 0.8 1015.6 23.9
2017-Nov-17 16:00N 22°52' W 143°02'1 0.6 1014.9 23.9
2017-Nov-17 15:00N 22°52' W 143°01'0 0.0 1014.5 23.9
2017-Nov-17 14:00N 22°52' W 143°01'5 4.8 1014.3 23.9
2017-Nov-17 13:00N 22°53' W 142°56'4 4.1 1014.7 23.9
2017-Nov-17 12:00N 22°52' W 143°01'4 0.8 1015.1 23.9
2017-Nov-17 07:00N 22°53' W 142°56'1 1.3 1017.1 24.0
2017-Nov-17 06:00N 22°54' W 142°55'1 0.6 1016.7 24.0
2017-Nov-17 05:00N 22°54' W 142°55'1 0.8 1016.6 24.0
2017-Nov-17 04:00N 22°55' W 142°54'1 0.6 1015.8 24.0
2017-Nov-17 03:00N 22°55' W 142°55'2 2.3 1015.0 24.0
2017-Nov-17 02:00N 22°55' W 142°52'0 0.0 1014.7 24.1
2017-Nov-17 01:00N 22°55' W 142°52'4 4.1 1014.3 24.1
2017-Nov-17 00:00N 22°58' W 142°49'1 0.1 1014.2 24.0
2017-Nov-16 20:00N 22°58' W 142°49'2 1.9 1016.7 23.9
2017-Nov-16 19:00N 22°59' W 142°49'1 0.8 1017.0 23.9
2017-Nov-16 18:00N 22°59' W 142°48'0 0.0 1016.4 23.9
2017-Nov-16 17:00N 22°59' W 142°48'2 1.6 1015.9 23.9
2017-Nov-16 16:00N 23°00' W 142°47'6 6.1 1015.5 23.9
2017-Nov-16 15:00N 23°04' W 142°42'6 5.7 1014.7 23.9
2017-Nov-16 14:00N 23°00' W 142°46'6 5.7 1014.6 24.0
2017-Nov-16 13:00N 23°04' W 142°42'1 0.1 1014.3 24.0
2017-Nov-16 07:00N 23°04' W 142°41'1 0.8 1015.9 24.4
2017-Nov-16 06:00N 23°05' W 142°41'1 0.6 1016.0 24.4
2017-Nov-16 05:00N 23°05' W 142°40'0 0.0 1015.4 24.3
2017-Nov-16 04:00N 23°05' W 142°40'1 0.6 1014.2 24.5
2017-Nov-16 03:00N 23°05' W 142°40'2 2.3 1013.8 24.5
2017-Nov-16 02:00N 23°05' W 142°37'0 0.0 1013.3 24.6
2017-Nov-16 00:00N 23°05' W 142°37'1 1.3 1012.8 24.7
2017-Nov-15 23:00N 23°07' W 142°37'1 0.3 1013.3 24.6
2017-Nov-15 19:00N 23°07' W 142°35'1 1.3 1016.2 24.2
2017-Nov-15 18:00N 23°08' W 142°35'0 0.0 1016.1 24.1
2017-Nov-15 17:00N 23°08' W 142°35'0 0.0 1015.5 24.0
2017-Nov-15 16:00N 23°08' W 142°35'0 0.0 1014.9 24.1
2017-Nov-15 15:00N 23°08' W 142°35'2 1.6 1014.6 24.1
2017-Nov-15 14:00N 23°09' W 142°34'2 1.6 1014.3 24.2
2017-Nov-15 13:00N 23°10' W 142°35'0 0.0 1014.1 24.2
2017-Nov-15 11:00N 23°10' W 142°35'1 0.4 1014.6 24.2
2017-Nov-15 08:00N 23°11' W 142°36'1 0.6 1015.4 24.3
2017-Nov-15 07:00N 23°11' W 142°35'1 0.6 1015.4 24.3
2017-Nov-15 06:00N 23°11' W 142°36'0 0.0 1015.3 24.3
2017-Nov-15 05:00N 23°11' W 142°36'0 0.0 1015.0 24.3
2017-Nov-15 04:00N 23°11' W 142°36'0 0.0 1014.3 24.4
2017-Nov-15 03:00N 23°11' W 142°36'0 0.0 1013.7 24.5
2017-Nov-15 02:00N 23°11' W 142°36'1 0.6 1013.4 24.6
2017-Nov-15 01:00N 23°10' W 142°36'0 0.0 1013.2 24.6
2017-Nov-15 00:00N 23°10' W 142°36'0 0.0 1013.4 24.5
2017-Nov-14 23:00N 23°10' W 142°36'0 0.0 1013.8 24.5
2017-Nov-14 22:00N 23°10' W 142°36'1 0.4 1014.4 24.3
2017-Nov-14 20:00N 23°10' W 142°35'1 0.6 1016.2 24.0
2017-Nov-14 19:00N 23°10' W 142°35'0 0.0 1016.8 23.9
2017-Nov-14 18:00N 23°10' W 142°35'1 0.6 1016.6 23.9
2017-Nov-14 16:00N 23°10' W 142°34'   1015.6 23.8

Dump ship's entire track history